createdAt,value
2023-05-10T00:00:39.428Z,98976.33
2023-05-10T00:06:05.989Z,98973.54
2023-05-10T00:11:11.143Z,98964.10
2023-05-10T00:16:14.319Z,98965.09
2023-05-10T00:21:35.775Z,98959.55
2023-05-10T00:27:05.957Z,98961.41
2023-05-10T00:32:17.250Z,98961.58
2023-05-10T00:37:24.636Z,98958.48
2023-05-10T00:42:44.204Z,98961.02
2023-05-10T00:47:56.238Z,98957.74
2023-05-10T00:53:18.864Z,98954.73
2023-05-10T00:58:29.449Z,98951.60
2023-05-10T01:03:39.089Z,98947.02
2023-05-10T01:08:47.164Z,98946.48
2023-05-10T01:14:11.406Z,98941.27
2023-05-10T01:19:35.872Z,98940.70
2023-05-10T01:25:07.860Z,98932.08
2023-05-10T01:30:43.886Z,98929.66
2023-05-10T01:36:03.406Z,98931.66
2023-05-10T01:41:48.835Z,98930.45
2023-05-10T01:47:26.241Z,98925.77
2023-05-10T01:52:53.587Z,98921.36
2023-05-10T01:58:16.918Z,98915.06
2023-05-10T02:04:00.235Z,98915.36
2023-05-10T02:09:16.930Z,98913.16
2023-05-10T02:14:55.187Z,98912.16
2023-05-10T02:20:20.570Z,98908.59
2023-05-10T02:25:48.581Z,98904.52
2023-05-10T02:30:57.095Z,98901.60
2023-05-10T02:36:05.118Z,98902.39
2023-05-10T02:41:14.508Z,98899.12
2023-05-10T02:46:25.014Z,98902.38
2023-05-10T02:51:36.040Z,98904.13
2023-05-10T02:56:50.338Z,98907.62
2023-05-10T03:02:05.161Z,98906.60
2023-05-10T03:07:10.700Z,98906.98
2023-05-10T03:12:43.744Z,98909.70
2023-05-10T03:18:15.393Z,98905.55
2023-05-10T03:23:24.434Z,98903.99
2023-05-10T03:28:51.740Z,98904.43
2023-05-10T03:34:05.785Z,98904.21
2023-05-10T03:39:20.423Z,98898.60
2023-05-10T03:44:35.576Z,98894.21
2023-05-10T03:49:40.275Z,98893.48
2023-05-10T03:55:19.890Z,98891.10
2023-05-10T04:00:58.518Z,98889.77
2023-05-10T04:06:12.033Z,98893.91
2023-05-10T04:11:17.290Z,98899.36
2023-05-10T04:16:33.658Z,98897.84
2023-05-10T04:21:41.348Z,98898.25
2023-05-10T04:26:46.744Z,98896.46
2023-05-10T04:31:56.376Z,98895.36
2023-05-10T04:37:01.686Z,98902.41
2023-05-10T04:42:06.807Z,98898.42
2023-05-10T04:47:11.263Z,98898.65
2023-05-10T04:52:20.939Z,98900.58
2023-05-10T04:57:28.055Z,98897.08
2023-05-10T05:02:43.926Z,98898.11
2023-05-10T05:07:49.651Z,98897.55
2023-05-10T05:12:57.319Z,98894.98
2023-05-10T05:18:11.168Z,98892.80
2023-05-10T05:23:21.696Z,98895.11
2023-05-10T05:28:38.479Z,98898.55
2023-05-10T05:33:41.039Z,98895.85
2023-05-10T05:38:52.354Z,98890.32
2023-05-10T05:43:54.689Z,98890.23
2023-05-10T05:48:59.647Z,98890.19
2023-05-10T05:54:05.302Z,98891.75
2023-05-10T05:59:16.990Z,98884.95
2023-05-10T06:04:31.046Z,98880.04
2023-05-10T06:09:36.395Z,98879.64
2023-05-10T06:14:38.692Z,98877.73
2023-05-10T06:19:44.096Z,98876.92
2023-05-10T06:24:49.565Z,98880.52
2023-05-10T06:29:56.467Z,98882.60
2023-05-10T06:35:23.325Z,98882.19
2023-05-10T06:40:25.765Z,98878.71
2023-05-10T06:45:35.881Z,98872.69
2023-05-10T06:50:52.160Z,98869.75
2023-05-10T06:55:54.302Z,98869.52
2023-05-10T07:01:27.289Z,98869.42
2023-05-10T07:06:33.840Z,98867.41
2023-05-10T07:11:39.734Z,98863.41
2023-05-10T07:16:45.716Z,98865.48
2023-05-10T07:21:51.968Z,98864.33
2023-05-10T07:26:54.478Z,98864.86
2023-05-10T07:31:59.269Z,98861.64
2023-05-10T07:37:02.389Z,98854.27
2023-05-10T07:42:04.669Z,98853.58
2023-05-10T07:47:09.516Z,98853.95
2023-05-10T07:52:12.267Z,98854.56
2023-05-10T07:57:16.385Z,98852.70
2023-05-10T08:02:19.000Z,98852.21
2023-05-10T08:07:29.957Z,98850.75
2023-05-10T08:12:32.143Z,98844.95
2023-05-10T08:17:40.567Z,98847.38
2023-05-10T08:22:43.161Z,98847.84
2023-05-10T08:27:45.314Z,98845.25
2023-05-10T08:32:47.820Z,98842.77
2023-05-10T08:37:52.803Z,98842.81
2023-05-10T08:43:10.757Z,98833.86
2023-05-10T08:48:13.027Z,98836.81
2023-05-10T08:53:22.223Z,98835.55
2023-05-10T08:58:24.459Z,98833.14
2023-05-10T09:03:30.138Z,98832.66
2023-05-10T09:08:32.488Z,98833.59
2023-05-10T09:13:42.889Z,98828.77
2023-05-10T09:18:45.538Z,98827.36
2023-05-10T09:23:51.315Z,98824.02
2023-05-10T09:29:04.562Z,98819.52
2023-05-10T09:34:14.490Z,98818.66
2023-05-10T09:39:39.337Z,98822.27
2023-05-10T09:44:47.270Z,98827.54
2023-05-10T09:50:03.930Z,98826.02
2023-05-10T09:55:09.378Z,98822.46
2023-05-10T10:00:24.380Z,98815.20
2023-05-10T10:05:31.164Z,98817.45
2023-05-10T10:10:37.965Z,98812.86
2023-05-10T10:15:52.217Z,98806.86
2023-05-10T10:21:01.519Z,98805.73
2023-05-10T10:26:07.838Z,98801.30
2023-05-10T10:31:45.655Z,98787.15
2023-05-10T10:37:15.748Z,98792.67
2023-05-10T10:43:17.970Z,98796.95
2023-05-10T10:48:36.916Z,98788.94
2023-05-10T10:53:59.987Z,98784.27
2023-05-10T10:59:10.235Z,98779.54
2023-05-10T11:04:47.410Z,98779.59
2023-05-10T11:09:59.410Z,98780.89
2023-05-10T11:15:16.185Z,98777.73
2023-05-10T11:20:41.955Z,98759.81
2023-05-10T11:25:46.137Z,98759.23
2023-05-10T11:30:52.456Z,98752.58
2023-05-10T11:35:59.858Z,98750.66
2023-05-10T11:41:28.029Z,98746.33
2023-05-10T11:46:41.475Z,98742.76
2023-05-10T11:51:53.317Z,98736.13
2023-05-10T11:57:06.264Z,98743.42
2023-05-10T12:02:14.811Z,98744.38
2023-05-10T12:07:23.064Z,98742.11
2023-05-10T12:12:49.295Z,98744.21
2023-05-10T12:18:02.378Z,98745.30
2023-05-10T12:23:17.148Z,98739.55
2023-05-10T12:28:32.103Z,98740.98
2023-05-10T12:33:46.234Z,98747.34
2023-05-10T12:39:03.670Z,98739.54
2023-05-10T12:44:23.772Z,98736.94
2023-05-10T12:49:31.208Z,98732.09
2023-05-10T12:54:53.053Z,98726.69
2023-05-10T12:59:58.572Z,98721.81
2023-05-10T13:05:03.946Z,98720.61
2023-05-10T13:10:27.641Z,98710.33
2023-05-10T13:15:30.511Z,98716.11
2023-05-10T13:20:33.029Z,98714.95
2023-05-10T13:25:35.783Z,98705.84
2023-05-10T13:30:38.071Z,98705.95
2023-05-10T13:35:40.631Z,98703.15
2023-05-10T13:40:42.897Z,98701.46
2023-05-10T13:45:48.407Z,98695.08
2023-05-10T13:50:53.362Z,98692.11
2023-05-10T13:56:09.813Z,98691.68
2023-05-10T14:01:17.424Z,98683.16
2023-05-10T14:06:23.149Z,98675.08
2023-05-10T14:11:25.404Z,98679.10
2023-05-10T14:16:28.724Z,98676.77
2023-05-10T14:21:31.962Z,98675.19
2023-05-10T14:26:42.383Z,98668.80
2023-05-10T14:31:44.991Z,98667.27
2023-05-10T14:36:50.935Z,98665.55
2023-05-10T14:41:54.314Z,98666.02
2023-05-10T14:46:59.484Z,98663.08
2023-05-10T14:52:01.778Z,98657.59
2023-05-10T14:57:04.549Z,98658.32
2023-05-10T15:02:12.691Z,98660.64
2023-05-10T15:07:17.480Z,98658.50
2023-05-10T15:12:20.222Z,98661.00
2023-05-10T15:17:25.306Z,98664.83
2023-05-10T15:22:29.356Z,98661.56
2023-05-10T15:27:40.207Z,98656.64
2023-05-10T15:32:52.740Z,98662.44
2023-05-10T15:37:58.809Z,98657.84
2023-05-10T15:43:01.552Z,98658.92
2023-05-10T15:48:04.809Z,98659.10
2023-05-10T15:53:12.026Z,98662.97
2023-05-10T15:58:27.626Z,98661.59
2023-05-10T16:03:31.053Z,98660.04
2023-05-10T16:08:44.573Z,98658.46
2023-05-10T16:13:47.281Z,98655.87
2023-05-10T16:18:58.855Z,98660.79
2023-05-10T16:24:01.540Z,98661.05
2023-05-10T16:29:21.736Z,98664.52
2023-05-10T16:34:25.402Z,98662.63
2023-05-10T16:39:28.005Z,98663.35
2023-05-10T16:44:30.732Z,98663.87
2023-05-10T16:49:34.026Z,98668.45
2023-05-10T16:54:38.701Z,98668.70
2023-05-10T16:59:40.977Z,98673.23
2023-05-10T17:04:43.560Z,98677.36
2023-05-10T17:09:47.157Z,98678.14
2023-05-10T17:14:49.600Z,98682.91
2023-05-10T17:19:52.623Z,98681.13
2023-05-10T17:24:57.172Z,98685.30
2023-05-10T17:30:03.504Z,98685.95
2023-05-10T17:35:06.885Z,98688.35
2023-05-10T17:40:10.532Z,98693.30
2023-05-10T17:45:12.552Z,98696.45
2023-05-10T17:50:15.901Z,98698.02
2023-05-10T17:55:18.511Z,98698.84
2023-05-10T18:00:21.594Z,98703.77
2023-05-10T18:05:23.939Z,98710.92
2023-05-10T18:10:29.945Z,98717.48
2023-05-10T18:15:33.454Z,98720.60
2023-05-10T18:20:36.107Z,98722.75
2023-05-10T18:25:38.354Z,98729.69
2023-05-10T18:30:44.946Z,98736.14
2023-05-10T18:35:47.428Z,98739.80
2023-05-10T18:40:50.705Z,98744.39
2023-05-10T18:45:53.258Z,98751.07
2023-05-10T18:51:05.094Z,98756.90
2023-05-10T18:56:07.994Z,98767.66
2023-05-10T19:01:16.921Z,98773.52
2023-05-10T19:06:19.027Z,98779.15
2023-05-10T19:11:24.853Z,98782.59
2023-05-10T19:16:29.070Z,98783.88
2023-05-10T19:21:33.414Z,98785.91
2023-05-10T19:26:38.695Z,98790.09
2023-05-10T19:31:45.362Z,98794.55
2023-05-10T19:36:50.757Z,98797.34
2023-05-10T19:41:55.954Z,98799.93
2023-05-10T19:46:59.005Z,98804.25
2023-05-10T19:52:03.767Z,98804.27
2023-05-10T19:57:17.896Z,98803.17
2023-05-10T20:02:20.012Z,98810.63
2023-05-10T20:07:22.412Z,98810.86
2023-05-10T20:12:30.567Z,98813.80
2023-05-10T20:17:38.396Z,98814.80
2023-05-10T20:22:40.857Z,98818.64
2023-05-10T20:27:46.108Z,98815.44
2023-05-10T20:32:48.602Z,98819.94
2023-05-10T20:37:50.494Z,98820.77
2023-05-10T20:42:54.305Z,98822.52
2023-05-10T20:47:56.387Z,98830.64
2023-05-10T20:52:58.619Z,98833.55
2023-05-10T21:03:03.515Z,98832.55
2023-05-10T21:08:06.158Z,98837.95
2023-05-10T21:13:13.520Z,98839.88
2023-05-10T21:18:15.616Z,98838.34
2023-05-10T21:23:17.893Z,98839.99
2023-05-10T21:28:19.895Z,98834.94
2023-05-10T21:33:24.951Z,98839.42
2023-05-10T21:38:28.432Z,98837.27
2023-05-10T21:43:31.702Z,98843.27
2023-05-10T21:48:39.258Z,98844.29
2023-05-10T21:53:44.805Z,98848.77
2023-05-10T21:58:49.835Z,98848.21
2023-05-10T22:03:52.500Z,98853.66
2023-05-10T22:08:54.485Z,98850.55
2023-05-10T22:13:59.880Z,98855.48
2023-05-10T22:19:02.674Z,98860.05
2023-05-10T22:24:05.400Z,98871.10
2023-05-10T22:29:10.830Z,98877.21
2023-05-10T22:34:15.893Z,98875.31
2023-05-10T22:39:20.776Z,98878.02
2023-05-10T22:44:24.100Z,98878.09
2023-05-10T22:49:29.559Z,98880.86
2023-05-10T22:54:36.276Z,98879.27
2023-05-10T22:59:44.882Z,98888.05
2023-05-10T23:04:47.618Z,98888.18
2023-05-10T23:09:50.385Z,98891.33
2023-05-10T23:14:56.527Z,98893.03
2023-05-10T23:19:58.697Z,98889.78
2023-05-10T23:25:08.991Z,98888.25
2023-05-10T23:30:11.471Z,98888.60
2023-05-10T23:35:16.836Z,98891.91
2023-05-10T23:40:19.985Z,98887.63
2023-05-10T23:45:23.557Z,98884.02
2023-05-10T23:50:50.049Z,98889.98
2023-05-10T23:55:52.620Z,98893.71
